sensor_id;sensor_type;location;lat;lon;timestamp;P1;durP1;ratioP1;P2;durP2;ratioP2
16693;SDS011;39538;52.196;9.892;2022-09-29T00:00:22;139.27;;;133.53;;
16693;SDS011;39538;52.196;9.892;2022-09-29T00:02:48;139.50;;;134.23;;
16693;SDS011;39538;52.196;9.892;2022-09-29T00:05:15;143.87;;;138.00;;
16693;SDS011;39538;52.196;9.892;2022-09-29T00:07:41;136.63;;;131.27;;
16693;SDS011;39538;52.196;9.892;2022-09-29T00:10:09;142.13;;;136.57;;
16693;SDS011;39538;52.196;9.892;2022-09-29T00:12:36;145.23;;;139.87;;
16693;SDS011;39538;52.196;9.892;2022-09-29T00:15:03;143.33;;;137.63;;
16693;SDS011;39538;52.196;9.892;2022-09-29T00:17:31;147.73;;;141.83;;
16693;SDS011;39538;52.196;9.892;2022-09-29T00:19:58;148.27;;;142.07;;
16693;SDS011;39538;52.196;9.892;2022-09-29T00:22:25;137.70;;;132.37;;
16693;SDS011;39538;52.196;9.892;2022-09-29T00:24:51;138.30;;;132.97;;
16693;SDS011;39538;52.196;9.892;2022-09-29T00:27:18;139.67;;;134.33;;
16693;SDS011;39538;52.196;9.892;2022-09-29T00:29:45;134.97;;;129.70;;
16693;SDS011;39538;52.196;9.892;2022-09-29T00:32:12;129.07;;;124.23;;
16693;SDS011;39538;52.196;9.892;2022-09-29T00:34:40;139.30;;;133.90;;
16693;SDS011;39538;52.196;9.892;2022-09-29T00:37:06;127.43;;;122.83;;
16693;SDS011;39538;52.196;9.892;2022-09-29T00:39:33;136.77;;;131.40;;
16693;SDS011;39538;52.196;9.892;2022-09-29T00:41:59;132.60;;;127.40;;
16693;SDS011;39538;52.196;9.892;2022-09-29T00:47:22;125.03;;;120.17;;
16693;SDS011;39538;52.196;9.892;2022-09-29T00:49:52;128.80;;;123.67;;
16693;SDS011;39538;52.196;9.892;2022-09-29T00:52:24;128.50;;;123.50;;
16693;SDS011;39538;52.196;9.892;2022-09-29T00:54:54;135.17;;;129.80;;
16693;SDS011;39538;52.196;9.892;2022-09-29T00:57:24;133.57;;;128.30;;
16693;SDS011;39538;52.196;9.892;2022-09-29T00:59:54;137.73;;;132.53;;
16693;SDS011;39538;52.196;9.892;2022-09-29T01:02:26;127.13;;;122.23;;
16693;SDS011;39538;52.196;9.892;2022-09-29T01:04:56;136.87;;;131.57;;
16693;SDS011;39538;52.196;9.892;2022-09-29T01:07:26;128.40;;;123.17;;
16693;SDS011;39538;52.196;9.892;2022-09-29T01:09:53;139.33;;;133.87;;
16693;SDS011;39538;52.196;9.892;2022-09-29T01:12:22;141.33;;;135.87;;
16693;SDS011;39538;52.196;9.892;2022-09-29T01:14:49;131.73;;;126.70;;
16693;SDS011;39538;52.196;9.892;2022-09-29T01:17:17;148.93;;;143.07;;
16693;SDS011;39538;52.196;9.892;2022-09-29T01:19:46;128.60;;;123.80;;
16693;SDS011;39538;52.196;9.892;2022-09-29T01:22:29;129.50;;;124.47;;
16693;SDS011;39538;52.196;9.892;2022-09-29T01:25:18;125.07;;;120.37;;
16693;SDS011;39538;52.196;9.892;2022-09-29T01:28:14;128.17;;;123.20;;
16693;SDS011;39538;52.196;9.892;2022-09-29T01:30:55;135.50;;;130.30;;
16693;SDS011;39538;52.196;9.892;2022-09-29T01:33:35;132.23;;;127.33;;
16693;SDS011;39538;52.196;9.892;2022-09-29T01:36:09;122.40;;;117.60;;
16693;SDS011;39538;52.196;9.892;2022-09-29T01:38:50;130.80;;;125.80;;
16693;SDS011;39538;52.196;9.892;2022-09-29T01:41:26;126.57;;;121.40;;
16693;SDS011;39538;52.196;9.892;2022-09-29T01:44:00;122.80;;;118.17;;
16693;SDS011;39538;52.196;9.892;2022-09-29T01:46:35;123.37;;;118.27;;
16693;SDS011;39538;52.196;9.892;2022-09-29T01:49:08;119.23;;;114.63;;
16693;SDS011;39538;52.196;9.892;2022-09-29T01:51:37;128.33;;;122.83;;
16693;SDS011;39538;52.196;9.892;2022-09-29T01:54:08;124.77;;;119.87;;
16693;SDS011;39538;52.196;9.892;2022-09-29T01:56:40;132.07;;;126.43;;
16693;SDS011;39538;52.196;9.892;2022-09-29T01:59:13;140.60;;;134.50;;
16693;SDS011;39538;52.196;9.892;2022-09-29T02:01:45;141.43;;;135.13;;
16693;SDS011;39538;52.196;9.892;2022-09-29T02:04:16;156.83;;;149.73;;
16693;SDS011;39538;52.196;9.892;2022-09-29T02:06:47;133.43;;;127.60;;
16693;SDS011;39538;52.196;9.892;2022-09-29T02:09:20;129.67;;;123.80;;
16693;SDS011;39538;52.196;9.892;2022-09-29T02:11:51;127.10;;;120.97;;
16693;SDS011;39538;52.196;9.892;2022-09-29T02:14:19;127.23;;;121.43;;
16693;SDS011;39538;52.196;9.892;2022-09-29T02:16:50;127.33;;;121.90;;
16693;SDS011;39538;52.196;9.892;2022-09-29T02:19:23;131.63;;;125.73;;
16693;SDS011;39538;52.196;9.892;2022-09-29T02:21:51;126.93;;;121.13;;
16693;SDS011;39538;52.196;9.892;2022-09-29T02:24:18;125.93;;;120.20;;
16693;SDS011;39538;52.196;9.892;2022-09-29T02:26:45;131.37;;;125.33;;
16693;SDS011;39538;52.196;9.892;2022-09-29T02:29:12;133.80;;;127.93;;
16693;SDS011;39538;52.196;9.892;2022-09-29T02:31:41;133.13;;;126.93;;
16693;SDS011;39538;52.196;9.892;2022-09-29T02:34:10;134.20;;;127.90;;
16693;SDS011;39538;52.196;9.892;2022-09-29T02:36:42;137.30;;;130.80;;
16693;SDS011;39538;52.196;9.892;2022-09-29T02:39:19;140.83;;;134.43;;
16693;SDS011;39538;52.196;9.892;2022-09-29T02:41:59;135.87;;;128.83;;
16693;SDS011;39538;52.196;9.892;2022-09-29T02:44:38;137.80;;;130.87;;
16693;SDS011;39538;52.196;9.892;2022-09-29T02:47:21;142.00;;;134.90;;
16693;SDS011;39538;52.196;9.892;2022-09-29T02:50:15;144.93;;;138.00;;
16693;SDS011;39538;52.196;9.892;2022-09-29T02:52:51;143.27;;;136.50;;
16693;SDS011;39538;52.196;9.892;2022-09-29T02:55:22;141.33;;;134.30;;
16693;SDS011;39538;52.196;9.892;2022-09-29T02:57:55;141.53;;;134.67;;
16693;SDS011;39538;52.196;9.892;2022-09-29T03:00:25;144.50;;;137.37;;
16693;SDS011;39538;52.196;9.892;2022-09-29T03:02:53;144.40;;;136.93;;
16693;SDS011;39538;52.196;9.892;2022-09-29T03:05:21;151.90;;;144.20;;
16693;SDS011;39538;52.196;9.892;2022-09-29T03:07:47;140.13;;;132.73;;
16693;SDS011;39538;52.196;9.892;2022-09-29T03:10:15;150.90;;;143.70;;
16693;SDS011;39538;52.196;9.892;2022-09-29T03:12:42;143.97;;;136.80;;
16693;SDS011;39538;52.196;9.892;2022-09-29T03:15:09;135.97;;;129.57;;
16693;SDS011;39538;52.196;9.892;2022-09-29T03:17:36;133.10;;;126.50;;
16693;SDS011;39538;52.196;9.892;2022-09-29T03:20:05;133.90;;;127.17;;
16693;SDS011;39538;52.196;9.892;2022-09-29T03:22:33;134.03;;;127.53;;
16693;SDS011;39538;52.196;9.892;2022-09-29T03:25:00;132.57;;;125.87;;
16693;SDS011;39538;52.196;9.892;2022-09-29T03:27:27;129.03;;;123.17;;
16693;SDS011;39538;52.196;9.892;2022-09-29T03:29:54;129.63;;;122.90;;
16693;SDS011;39538;52.196;9.892;2022-09-29T03:32:20;127.97;;;121.90;;
16693;SDS011;39538;52.196;9.892;2022-09-29T03:34:47;117.47;;;112.17;;
16693;SDS011;39538;52.196;9.892;2022-09-29T03:37:13;124.00;;;118.10;;
16693;SDS011;39538;52.196;9.892;2022-09-29T03:39:41;118.43;;;113.00;;
16693;SDS011;39538;52.196;9.892;2022-09-29T03:42:08;116.23;;;110.97;;
16693;SDS011;39538;52.196;9.892;2022-09-29T03:44:34;116.03;;;111.03;;
16693;SDS011;39538;52.196;9.892;2022-09-29T03:47:01;121.87;;;116.57;;
16693;SDS011;39538;52.196;9.892;2022-09-29T03:49:27;126.20;;;120.67;;
16693;SDS011;39538;52.196;9.892;2022-09-29T03:51:53;116.10;;;110.33;;
16693;SDS011;39538;52.196;9.892;2022-09-29T03:54:20;111.77;;;106.53;;
16693;SDS011;39538;52.196;9.892;2022-09-29T03:56:49;109.10;;;104.50;;
16693;SDS011;39538;52.196;9.892;2022-09-29T03:59:16;116.17;;;110.70;;
16693;SDS011;39538;52.196;9.892;2022-09-29T04:01:42;119.87;;;114.27;;
16693;SDS011;39538;52.196;9.892;2022-09-29T04:04:09;119.33;;;114.17;;
16693;SDS011;39538;52.196;9.892;2022-09-29T04:06:36;122.27;;;116.83;;
16693;SDS011;39538;52.196;9.892;2022-09-29T04:09:02;107.03;;;102.53;;
16693;SDS011;39538;52.196;9.892;2022-09-29T04:11:29;108.10;;;103.33;;
16693;SDS011;39538;52.196;9.892;2022-09-29T04:13:57;106.67;;;101.87;;
16693;SDS011;39538;52.196;9.892;2022-09-29T04:16:24;111.57;;;106.63;;
16693;SDS011;39538;52.196;9.892;2022-09-29T04:18:50;105.23;;;100.70;;
16693;SDS011;39538;52.196;9.892;2022-09-29T04:21:17;116.10;;;110.87;;
16693;SDS011;39538;52.196;9.892;2022-09-29T04:23:44;119.57;;;114.03;;
16693;SDS011;39538;52.196;9.892;2022-09-29T04:26:10;112.40;;;107.30;;
16693;SDS011;39538;52.196;9.892;2022-09-29T04:28:38;120.10;;;114.47;;
16693;SDS011;39538;52.196;9.892;2022-09-29T04:31:06;116.67;;;111.10;;
16693;SDS011;39538;52.196;9.892;2022-09-29T04:33:33;116.50;;;110.57;;
16693;SDS011;39538;52.196;9.892;2022-09-29T04:36:00;115.43;;;110.37;;
16693;SDS011;39538;52.196;9.892;2022-09-29T04:38:27;125.80;;;119.73;;
16693;SDS011;39538;52.196;9.892;2022-09-29T04:40:53;116.27;;;110.60;;
16693;SDS011;39538;52.196;9.892;2022-09-29T04:43:20;126.00;;;119.87;;
16693;SDS011;39538;52.196;9.892;2022-09-29T04:45:46;127.00;;;120.97;;
16693;SDS011;39538;52.196;9.892;2022-09-29T04:48:14;143.23;;;136.40;;
16693;SDS011;39538;52.196;9.892;2022-09-29T04:50:41;130.93;;;124.83;;
16693;SDS011;39538;52.196;9.892;2022-09-29T04:53:08;113.00;;;107.90;;
16693;SDS011;39538;52.196;9.892;2022-09-29T04:55:36;119.00;;;113.47;;
16693;SDS011;39538;52.196;9.892;2022-09-29T04:58:03;114.03;;;108.30;;
16693;SDS011;39538;52.196;9.892;2022-09-29T05:00:29;108.43;;;103.37;;
16693;SDS011;39538;52.196;9.892;2022-09-29T05:02:57;120.07;;;114.57;;
16693;SDS011;39538;52.196;9.892;2022-09-29T05:05:25;107.20;;;102.03;;
16693;SDS011;39538;52.196;9.892;2022-09-29T05:07:52;106.80;;;102.03;;
16693;SDS011;39538;52.196;9.892;2022-09-29T05:10:18;108.90;;;104.00;;
16693;SDS011;39538;52.196;9.892;2022-09-29T05:12:48;112.50;;;107.10;;
16693;SDS011;39538;52.196;9.892;2022-09-29T05:15:16;102.73;;;98.20;;
16693;SDS011;39538;52.196;9.892;2022-09-29T05:17:44;113.07;;;107.77;;
16693;SDS011;39538;52.196;9.892;2022-09-29T05:20:10;110.17;;;104.73;;
16693;SDS011;39538;52.196;9.892;2022-09-29T05:22:38;118.60;;;112.13;;
16693;SDS011;39538;52.196;9.892;2022-09-29T05:25:05;108.67;;;102.90;;
16693;SDS011;39538;52.196;9.892;2022-09-29T05:27:33;97.27;;;92.67;;
16693;SDS011;39538;52.196;9.892;2022-09-29T05:30:00;108.40;;;103.17;;
16693;SDS011;39538;52.196;9.892;2022-09-29T05:32:27;99.70;;;95.13;;
16693;SDS011;39538;52.196;9.892;2022-09-29T05:34:54;113.40;;;108.27;;
16693;SDS011;39538;52.196;9.892;2022-09-29T05:37:21;113.63;;;108.40;;
16693;SDS011;39538;52.196;9.892;2022-09-29T05:39:49;124.43;;;118.43;;
16693;SDS011;39538;52.196;9.892;2022-09-29T05:42:15;111.67;;;105.87;;
16693;SDS011;39538;52.196;9.892;2022-09-29T05:44:42;114.10;;;109.20;;
16693;SDS011;39538;52.196;9.892;2022-09-29T05:47:09;109.20;;;103.70;;
16693;SDS011;39538;52.196;9.892;2022-09-29T05:49:35;111.67;;;106.63;;
16693;SDS011;39538;52.196;9.892;2022-09-29T05:52:03;108.87;;;104.00;;
16693;SDS011;39538;52.196;9.892;2022-09-29T05:54:29;106.47;;;101.33;;
16693;SDS011;39538;52.196;9.892;2022-09-29T05:56:57;105.73;;;100.53;;
16693;SDS011;39538;52.196;9.892;2022-09-29T05:59:24;104.57;;;98.83;;
16693;SDS011;39538;52.196;9.892;2022-09-29T06:01:50;107.80;;;103.00;;
16693;SDS011;39538;52.196;9.892;2022-09-29T06:04:17;110.73;;;105.90;;
16693;SDS011;39538;52.196;9.892;2022-09-29T06:06:43;112.10;;;106.87;;
16693;SDS011;39538;52.196;9.892;2022-09-29T06:09:11;109.67;;;104.47;;
16693;SDS011;39538;52.196;9.892;2022-09-29T06:11:37;104.27;;;99.47;;
16693;SDS011;39538;52.196;9.892;2022-09-29T06:14:05;103.00;;;98.17;;
16693;SDS011;39538;52.196;9.892;2022-09-29T06:16:32;107.40;;;102.97;;
16693;SDS011;39538;52.196;9.892;2022-09-29T06:18:59;100.20;;;95.57;;
16693;SDS011;39538;52.196;9.892;2022-09-29T06:21:26;109.43;;;104.13;;
16693;SDS011;39538;52.196;9.892;2022-09-29T06:23:54;110.43;;;105.53;;
16693;SDS011;39538;52.196;9.892;2022-09-29T06:26:23;112.60;;;107.07;;
16693;SDS011;39538;52.196;9.892;2022-09-29T06:28:50;120.33;;;114.43;;
16693;SDS011;39538;52.196;9.892;2022-09-29T06:31:19;119.70;;;114.00;;
16693;SDS011;39538;52.196;9.892;2022-09-29T06:33:47;125.60;;;119.83;;
16693;SDS011;39538;52.196;9.892;2022-09-29T06:36:15;119.23;;;113.33;;
16693;SDS011;39538;52.196;9.892;2022-09-29T06:39:00;129.47;;;123.07;;
16693;SDS011;39538;52.196;9.892;2022-09-29T06:41:27;132.93;;;126.37;;
16693;SDS011;39538;52.196;9.892;2022-09-29T06:43:54;132.37;;;125.90;;
16693;SDS011;39538;52.196;9.892;2022-09-29T06:46:22;136.03;;;129.63;;
16693;SDS011;39538;52.196;9.892;2022-09-29T06:48:50;127.77;;;121.93;;
16693;SDS011;39538;52.196;9.892;2022-09-29T06:51:18;127.10;;;121.17;;
16693;SDS011;39538;52.196;9.892;2022-09-29T06:53:46;126.00;;;120.00;;
16693;SDS011;39538;52.196;9.892;2022-09-29T06:56:12;154.83;;;147.67;;
16693;SDS011;39538;52.196;9.892;2022-09-29T06:58:39;127.47;;;121.70;;
16693;SDS011;39538;52.196;9.892;2022-09-29T07:01:06;141.13;;;134.70;;
16693;SDS011;39538;52.196;9.892;2022-09-29T07:03:34;124.57;;;119.03;;
16693;SDS011;39538;52.196;9.892;2022-09-29T07:06:01;110.10;;;105.00;;
16693;SDS011;39538;52.196;9.892;2022-09-29T07:08:28;81.70;;;77.97;;
16693;SDS011;39538;52.196;9.892;2022-09-29T07:10:55;73.57;;;70.70;;
16693;SDS011;39538;52.196;9.892;2022-09-29T07:13:22;117.37;;;112.03;;
16693;SDS011;39538;52.196;9.892;2022-09-29T07:15:49;140.47;;;133.97;;
16693;SDS011;39538;52.196;9.892;2022-09-29T07:18:16;118.83;;;113.53;;
16693;SDS011;39538;52.196;9.892;2022-09-29T07:20:43;125.00;;;119.47;;
16693;SDS011;39538;52.196;9.892;2022-09-29T07:23:10;131.40;;;125.57;;
16693;SDS011;39538;52.196;9.892;2022-09-29T07:25:37;124.87;;;119.27;;
16693;SDS011;39538;52.196;9.892;2022-09-29T07:28:04;115.33;;;110.07;;
16693;SDS011;39538;52.196;9.892;2022-09-29T07:30:30;127.77;;;122.03;;
16693;SDS011;39538;52.196;9.892;2022-09-29T07:32:57;122.67;;;117.60;;
16693;SDS011;39538;52.196;9.892;2022-09-29T07:35:23;126.23;;;120.97;;
16693;SDS011;39538;52.196;9.892;2022-09-29T07:37:52;91.50;;;87.63;;
16693;SDS011;39538;52.196;9.892;2022-09-29T07:40:19;91.30;;;87.73;;
16693;SDS011;39538;52.196;9.892;2022-09-29T07:42:46;127.33;;;121.27;;
16693;SDS011;39538;52.196;9.892;2022-09-29T07:45:13;116.53;;;111.43;;
16693;SDS011;39538;52.196;9.892;2022-09-29T07:47:39;118.43;;;113.60;;
16693;SDS011;39538;52.196;9.892;2022-09-29T07:50:06;97.23;;;93.50;;
16693;SDS011;39538;52.196;9.892;2022-09-29T07:52:33;97.63;;;93.80;;
16693;SDS011;39538;52.196;9.892;2022-09-29T07:55:01;85.87;;;82.27;;
16693;SDS011;39538;52.196;9.892;2022-09-29T07:57:28;99.37;;;95.40;;
16693;SDS011;39538;52.196;9.892;2022-09-29T07:59:55;86.03;;;82.23;;
16693;SDS011;39538;52.196;9.892;2022-09-29T08:02:23;94.60;;;90.63;;
16693;SDS011;39538;52.196;9.892;2022-09-29T08:04:50;75.13;;;72.53;;
16693;SDS011;39538;52.196;9.892;2022-09-29T08:07:16;81.10;;;78.13;;
16693;SDS011;39538;52.196;9.892;2022-09-29T08:09:43;70.10;;;67.67;;
16693;SDS011;39538;52.196;9.892;2022-09-29T08:12:12;81.83;;;78.93;;
16693;SDS011;39538;52.196;9.892;2022-09-29T08:14:39;100.03;;;96.17;;
16693;SDS011;39538;52.196;9.892;2022-09-29T08:17:06;88.73;;;85.37;;
16693;SDS011;39538;52.196;9.892;2022-09-29T08:19:33;73.40;;;70.50;;
16693;SDS011;39538;52.196;9.892;2022-09-29T08:21:59;89.10;;;85.27;;
16693;SDS011;39538;52.196;9.892;2022-09-29T08:24:26;122.90;;;118.10;;
16693;SDS011;39538;52.196;9.892;2022-09-29T08:26:55;126.70;;;121.68;;
16693;SDS011;39538;52.196;9.892;2022-09-29T08:29:23;127.97;;;123.20;;
16693;SDS011;39538;52.196;9.892;2022-09-29T08:31:49;145.32;;;139.43;;
16693;SDS011;39538;52.196;9.892;2022-09-29T08:34:16;144.52;;;138.40;;
16693;SDS011;39538;52.196;9.892;2022-09-29T08:36:43;165.20;;;157.02;;
16693;SDS011;39538;52.196;9.892;2022-09-29T08:39:10;146.95;;;140.85;;
16693;SDS011;39538;52.196;9.892;2022-09-29T08:41:44;133.20;;;128.00;;
16693;SDS011;39538;52.196;9.892;2022-09-29T08:44:17;130.77;;;125.23;;
16693;SDS011;39538;52.196;9.892;2022-09-29T08:46:49;117.97;;;113.37;;
16693;SDS011;39538;52.196;9.892;2022-09-29T08:49:20;113.87;;;109.40;;
16693;SDS011;39538;52.196;9.892;2022-09-29T08:51:49;109.20;;;105.07;;
16693;SDS011;39538;52.196;9.892;2022-09-29T08:54:21;95.27;;;91.97;;
16693;SDS011;39538;52.196;9.892;2022-09-29T08:56:53;92.83;;;89.53;;
16693;SDS011;39538;52.196;9.892;2022-09-29T08:59:19;87.27;;;84.37;;
16693;SDS011;39538;52.196;9.892;2022-09-29T09:01:54;94.00;;;90.50;;
16693;SDS011;39538;52.196;9.892;2022-09-29T09:07:38;66.17;;;63.80;;
16693;SDS011;39538;52.196;9.892;2022-09-29T09:10:13;69.07;;;66.57;;
16693;SDS011;39538;52.196;9.892;2022-09-29T09:12:50;83.77;;;80.20;;
16693;SDS011;39538;52.196;9.892;2022-09-29T09:18:35;86.33;;;82.93;;
16693;SDS011;39538;52.196;9.892;2022-09-29T09:21:15;85.37;;;81.97;;
16693;SDS011;39538;52.196;9.892;2022-09-29T09:23:48;87.03;;;83.40;;
16693;SDS011;39538;52.196;9.892;2022-09-29T09:26:19;84.27;;;81.23;;
16693;SDS011;39538;52.196;9.892;2022-09-29T09:28:54;102.60;;;97.90;;
16693;SDS011;39538;52.196;9.892;2022-09-29T09:31:26;78.40;;;75.10;;
16693;SDS011;39538;52.196;9.892;2022-09-29T09:34:00;81.63;;;78.13;;
16693;SDS011;39538;52.196;9.892;2022-09-29T09:36:32;103.68;;;99.75;;
16693;SDS011;39538;52.196;9.892;2022-09-29T09:39:03;122.22;;;117.65;;
16693;SDS011;39538;52.196;9.892;2022-09-29T09:41:38;130.70;;;125.40;;
16693;SDS011;39538;52.196;9.892;2022-09-29T09:44:08;145.02;;;139.13;;
16693;SDS011;39538;52.196;9.892;2022-09-29T09:46:41;151.95;;;145.52;;
16693;SDS011;39538;52.196;9.892;2022-09-29T09:49:15;157.18;;;150.30;;
16693;SDS011;39538;52.196;9.892;2022-09-29T09:51:48;169.95;;;162.68;;
16693;SDS011;39538;52.196;9.892;2022-09-29T09:54:23;157.50;;;150.88;;
16693;SDS011;39538;52.196;9.892;2022-09-29T09:57:02;163.45;;;156.75;;
16693;SDS011;39538;52.196;9.892;2022-09-29T09:59:46;145.38;;;139.32;;
16693;SDS011;39538;52.196;9.892;2022-09-29T10:02:21;156.90;;;150.45;;
16693;SDS011;39538;52.196;9.892;2022-09-29T10:04:50;157.52;;;151.02;;
16693;SDS011;39538;52.196;9.892;2022-09-29T10:07:18;145.68;;;139.68;;
16693;SDS011;39538;52.196;9.892;2022-09-29T10:09:46;183.05;;;174.65;;
16693;SDS011;39538;52.196;9.892;2022-09-29T10:12:13;152.63;;;145.25;;
16693;SDS011;39538;52.196;9.892;2022-09-29T10:14:43;151.32;;;145.07;;
16693;SDS011;39538;52.196;9.892;2022-09-29T10:17:14;139.68;;;133.18;;
16693;SDS011;39538;52.196;9.892;2022-09-29T10:19:52;139.65;;;133.98;;
16693;SDS011;39538;52.196;9.892;2022-09-29T10:22:21;141.63;;;136.02;;
16693;SDS011;39538;52.196;9.892;2022-09-29T10:24:50;140.52;;;134.68;;
16693;SDS011;39538;52.196;9.892;2022-09-29T10:27:21;143.20;;;137.20;;
16693;SDS011;39538;52.196;9.892;2022-09-29T10:29:50;134.73;;;127.20;;
16693;SDS011;39538;52.196;9.892;2022-09-29T10:32:21;133.68;;;128.10;;
16693;SDS011;39538;52.196;9.892;2022-09-29T10:34:52;131.03;;;125.73;;
16693;SDS011;39538;52.196;9.892;2022-09-29T10:37:28;140.07;;;134.68;;
16693;SDS011;39538;52.196;9.892;2022-09-29T10:40:00;127.93;;;123.20;;
16693;SDS011;39538;52.196;9.892;2022-09-29T10:42:38;141.15;;;135.35;;
16693;SDS011;39538;52.196;9.892;2022-09-29T10:45:10;153.52;;;147.48;;
16693;SDS011;39538;52.196;9.892;2022-09-29T10:47:38;137.52;;;131.98;;
16693;SDS011;39538;52.196;9.892;2022-09-29T10:50:08;139.13;;;133.40;;
16693;SDS011;39538;52.196;9.892;2022-09-29T10:52:40;137.70;;;132.13;;
16693;SDS011;39538;52.196;9.892;2022-09-29T10:55:13;142.13;;;136.30;;
16693;SDS011;39538;52.196;9.892;2022-09-29T10:57:43;145.85;;;140.07;;
16693;SDS011;39538;52.196;9.892;2022-09-29T11:00:23;145.65;;;139.60;;
16693;SDS011;39538;52.196;9.892;2022-09-29T11:02:51;137.27;;;131.48;;
16693;SDS011;39538;52.196;9.892;2022-09-29T11:05:21;141.35;;;135.70;;
16693;SDS011;39538;52.196;9.892;2022-09-29T11:07:49;120.63;;;115.07;;
16693;SDS011;39538;52.196;9.892;2022-09-29T11:10:27;132.63;;;127.60;;
16693;SDS011;39538;52.196;9.892;2022-09-29T11:12:55;111.10;;;107.23;;
16693;SDS011;39538;52.196;9.892;2022-09-29T11:15:24;112.60;;;108.30;;
16693;SDS011;39538;52.196;9.892;2022-09-29T11:17:52;130.52;;;125.32;;
16693;SDS011;39538;52.196;9.892;2022-09-29T11:20:22;128.05;;;123.30;;
16693;SDS011;39538;52.196;9.892;2022-09-29T11:22:59;152.32;;;146.20;;
16693;SDS011;39538;52.196;9.892;2022-09-29T11:25:43;184.63;;;176.55;;
16693;SDS011;39538;52.196;9.892;2022-09-29T11:28:41;148.35;;;142.23;;
16693;SDS011;39538;52.196;9.892;2022-09-29T11:31:31;139.60;;;133.30;;
16693;SDS011;39538;52.196;9.892;2022-09-29T11:34:15;147.18;;;140.98;;
16693;SDS011;39538;52.196;9.892;2022-09-29T11:36:59;151.75;;;145.93;;
16693;SDS011;39538;52.196;9.892;2022-09-29T11:39:42;142.55;;;137.05;;
16693;SDS011;39538;52.196;9.892;2022-09-29T11:42:25;130.90;;;125.78;;
16693;SDS011;39538;52.196;9.892;2022-09-29T11:45:08;124.75;;;119.88;;
16693;SDS011;39538;52.196;9.892;2022-09-29T11:47:46;130.07;;;124.77;;
16693;SDS011;39538;52.196;9.892;2022-09-29T11:50:36;114.73;;;110.67;;
16693;SDS011;39538;52.196;9.892;2022-09-29T11:53:28;120.77;;;116.37;;
16693;SDS011;39538;52.196;9.892;2022-09-29T11:56:09;103.43;;;99.97;;
16693;SDS011;39538;52.196;9.892;2022-09-29T11:58:50;110.00;;;105.77;;
16693;SDS011;39538;52.196;9.892;2022-09-29T12:01:25;134.40;;;129.30;;
16693;SDS011;39538;52.196;9.892;2022-09-29T12:04:16;110.00;;;105.83;;
16693;SDS011;39538;52.196;9.892;2022-09-29T12:06:54;103.37;;;100.03;;
16693;SDS011;39538;52.196;9.892;2022-09-29T12:09:28;102.90;;;99.63;;
16693;SDS011;39538;52.196;9.892;2022-09-29T12:12:04;117.33;;;113.23;;
16693;SDS011;39538;52.196;9.892;2022-09-29T12:14:38;91.83;;;88.97;;
16693;SDS011;39538;52.196;9.892;2022-09-29T12:17:12;107.50;;;103.67;;
16693;SDS011;39538;52.196;9.892;2022-09-29T12:19:42;83.93;;;81.33;;
16693;SDS011;39538;52.196;9.892;2022-09-29T12:22:12;80.27;;;77.83;;
16693;SDS011;39538;52.196;9.892;2022-09-29T12:24:44;77.73;;;75.33;;
16693;SDS011;39538;52.196;9.892;2022-09-29T12:27:15;77.57;;;75.07;;
16693;SDS011;39538;52.196;9.892;2022-09-29T12:29:45;77.43;;;75.23;;
16693;SDS011;39538;52.196;9.892;2022-09-29T12:32:17;69.80;;;68.00;;
16693;SDS011;39538;52.196;9.892;2022-09-29T12:34:50;70.23;;;68.50;;
16693;SDS011;39538;52.196;9.892;2022-09-29T12:37:22;86.57;;;83.90;;
16693;SDS011;39538;52.196;9.892;2022-09-29T12:40:00;83.00;;;80.30;;
16693;SDS011;39538;52.196;9.892;2022-09-29T12:42:33;94.17;;;89.97;;
16693;SDS011;39538;52.196;9.892;2022-09-29T12:45:07;101.80;;;98.30;;
16693;SDS011;39538;52.196;9.892;2022-09-29T12:47:45;86.47;;;83.93;;
16693;SDS011;39538;52.196;9.892;2022-09-29T12:50:19;69.67;;;67.57;;
16693;SDS011;39538;52.196;9.892;2022-09-29T12:52:51;75.00;;;73.00;;
16693;SDS011;39538;52.196;9.892;2022-09-29T12:55:25;79.50;;;76.90;;
16693;SDS011;39538;52.196;9.892;2022-09-29T12:58:00;84.43;;;81.77;;
16693;SDS011;39538;52.196;9.892;2022-09-29T13:00:32;82.03;;;79.53;;
16693;SDS011;39538;52.196;9.892;2022-09-29T13:03:14;87.43;;;84.80;;
16693;SDS011;39538;52.196;9.892;2022-09-29T13:08:53;85.63;;;82.93;;
16693;SDS011;39538;52.196;9.892;2022-09-29T13:11:37;91.67;;;88.67;;
16693;SDS011;39538;52.196;9.892;2022-09-29T13:17:28;93.20;;;90.13;;
16693;SDS011;39538;52.196;9.892;2022-09-29T13:26:06;90.53;;;87.93;;
16693;SDS011;39538;52.196;9.892;2022-09-29T13:28:45;91.43;;;88.73;;
16693;SDS011;39538;52.196;9.892;2022-09-29T13:31:16;90.27;;;87.50;;
16693;SDS011;39538;52.196;9.892;2022-09-29T13:33:45;81.97;;;79.67;;
16693;SDS011;39538;52.196;9.892;2022-09-29T13:36:20;73.40;;;71.47;;
16693;SDS011;39538;52.196;9.892;2022-09-29T13:38:50;83.37;;;80.67;;
16693;SDS011;39538;52.196;9.892;2022-09-29T13:41:31;76.97;;;74.67;;
16693;SDS011;39538;52.196;9.892;2022-09-29T13:44:19;82.83;;;80.43;;
16693;SDS011;39538;52.196;9.892;2022-09-29T13:46:49;72.13;;;70.23;;
16693;SDS011;39538;52.196;9.892;2022-09-29T13:49:23;59.70;;;58.13;;
16693;SDS011;39538;52.196;9.892;2022-09-29T13:51:52;81.13;;;78.77;;
16693;SDS011;39538;52.196;9.892;2022-09-29T13:54:29;57.53;;;56.03;;
16693;SDS011;39538;52.196;9.892;2022-09-29T13:56:59;49.70;;;48.20;;
16693;SDS011;39538;52.196;9.892;2022-09-29T13:59:32;50.70;;;49.40;;
16693;SDS011;39538;52.196;9.892;2022-09-29T14:02:00;46.57;;;45.47;;
16693;SDS011;39538;52.196;9.892;2022-09-29T14:07:10;45.47;;;44.37;;
16693;SDS011;39538;52.196;9.892;2022-09-29T14:09:39;47.67;;;46.33;;
16693;SDS011;39538;52.196;9.892;2022-09-29T14:12:09;46.20;;;45.10;;
16693;SDS011;39538;52.196;9.892;2022-09-29T14:14:46;39.33;;;38.40;;
16693;SDS011;39538;52.196;9.892;2022-09-29T14:17:20;42.87;;;41.47;;
16693;SDS011;39538;52.196;9.892;2022-09-29T14:19:52;43.53;;;42.53;;
16693;SDS011;39538;52.196;9.892;2022-09-29T14:25:30;42.80;;;41.80;;
16693;SDS011;39538;52.196;9.892;2022-09-29T14:28:24;47.47;;;45.87;;
16693;SDS011;39538;52.196;9.892;2022-09-29T14:31:01;45.60;;;44.47;;
16693;SDS011;39538;52.196;9.892;2022-09-29T14:33:29;72.70;;;70.67;;
16693;SDS011;39538;52.196;9.892;2022-09-29T14:36:02;92.97;;;89.97;;
16693;SDS011;39538;52.196;9.892;2022-09-29T14:38:32;92.93;;;89.83;;
16693;SDS011;39538;52.196;9.892;2022-09-29T14:41:03;90.47;;;87.47;;
16693;SDS011;39538;52.196;9.892;2022-09-29T14:43:48;78.07;;;75.87;;
16693;SDS011;39538;52.196;9.892;2022-09-29T14:46:29;81.10;;;78.53;;
16693;SDS011;39538;52.196;9.892;2022-09-29T14:49:40;65.07;;;63.03;;
16693;SDS011;39538;52.196;9.892;2022-09-29T14:52:47;64.03;;;62.33;;